Time;durP1;ratioP1;P1;durP2;ratioP2;P2;SDS_P1;SDS_P2;PMS_P1;PMS_P2;Temp;Humidity;BMP_temperature;BMP_pressure;BME280_temperature;BME280_humidity;BME280_pressure;Samples;Min_cycle;Max_cycle;Signal;HPM_P1;HPM_P2
2021/08/31 00:01:52;;;;;;;19.83;12.30;;;15.50;99.90;;;15.55;78.25;97924.50;4948431;29;20051;-40
2021/08/31 00:04:20;;;;;;;18.50;12.95;;;15.40;99.90;;;15.56;78.44;97928.84;4948654;28;20408;-40
2021/08/31 00:06:49;;;;;;;22.77;13.48;;;15.40;99.90;;;15.58;78.32;97928.66;4948956;29;20047;-40
2021/08/31 00:09:19;;;;;;;20.92;14.23;;;15.50;99.90;;;15.55;78.26;97923.69;4948783;28;20070;-40
2021/08/31 00:11:47;;;;;;;21.85;14.52;;;15.50;99.90;;;15.55;78.56;97927.19;4948896;29;20066;-40
2021/08/31 00:14:15;;;;;;;23.48;15.55;;;15.50;99.90;;;15.56;78.55;97920.78;4947850;29;20039;-39
2021/08/31 00:16:44;;;;;;;21.50;14.93;;;15.50;99.90;;;15.61;78.34;97927.47;4948491;29;20063;-40
2021/08/31 00:19:12;;;;;;;21.15;14.80;;;15.50;99.90;;;15.58;78.22;97928.66;4948238;29;20238;-40
2021/08/31 00:21:40;;;;;;;20.35;14.80;;;15.50;99.90;;;15.50;78.47;97926.91;4948083;29;20059;-40
2021/08/31 00:24:08;;;;;;;21.52;14.55;;;15.40;99.90;;;15.50;78.48;97929.59;4948378;28;20270;-40
2021/08/31 00:26:36;;;;;;;24.15;16.40;;;15.40;99.90;;;15.51;78.31;97931.25;4949000;29;20265;-40
2021/08/31 00:29:04;;;;;;;24.58;16.10;;;15.40;99.90;;;15.48;78.70;97937.00;4948422;28;20093;-40
2021/08/31 00:31:32;;;;;;;24.58;16.42;;;15.40;99.90;;;15.46;78.69;97932.84;4947932;29;20051;-40
2021/08/31 00:34:00;;;;;;;23.33;15.85;;;15.40;99.90;;;15.48;78.67;97934.31;4947551;28;20055;-40
2021/08/31 00:36:28;;;;;;;24.85;16.58;;;15.30;99.90;;;15.44;78.68;97934.88;4949277;28;20472;-40
2021/08/31 00:38:57;;;;;;;23.40;16.15;;;15.30;99.90;;;15.48;78.75;97930.81;4948129;28;20585;-40
2021/08/31 00:41:25;;;;;;;25.05;17.42;;;15.40;99.90;;;15.45;78.68;97931.16;4949440;29;20046;-40
2021/08/31 00:43:55;;;;;;;24.40;15.93;;;15.40;99.90;;;15.44;78.84;97932.19;4949473;28;20065;-40
2021/08/31 00:46:23;;;;;;;25.13;17.70;;;15.40;99.90;;;15.45;78.70;97928.47;4948695;29;20051;-40
2021/08/31 00:48:51;;;;;;;25.23;17.35;;;15.40;99.90;;;15.40;78.85;97931.72;4948458;29;20055;-40
2021/08/31 00:51:22;;;;;;;27.13;17.40;;;15.30;99.90;;;15.41;78.87;97936.09;4948022;28;20203;-40
2021/08/31 00:53:51;;;;;;;26.60;16.80;;;15.40;99.90;;;15.36;78.99;97942.00;4945922;28;20069;-40
2021/08/31 00:56:20;;;;;;;31.15;18.70;;;15.30;99.90;;;15.33;78.93;97939.69;4948682;29;20053;-40
2021/08/31 00:58:50;;;;;;;28.90;19.92;;;15.30;99.90;;;15.25;79.41;97936.25;4947783;29;20059;-40
2021/08/31 01:01:18;;;;;;;26.60;16.58;;;15.20;99.90;;;15.30;79.13;97939.22;4947481;28;20067;-40
2021/08/31 01:03:48;;;;;;;28.70;18.83;;;15.20;99.90;;;15.28;79.17;97933.22;4946320;28;20059;-40
2021/08/31 01:06:17;;;;;;;30.35;18.17;;;15.20;99.90;;;15.25;79.29;97941.63;4947387;29;20055;-40
2021/08/31 01:08:45;;;;;;;27.55;17.00;;;15.20;99.90;;;15.33;79.15;97939.69;4946279;29;20054;-40
2021/08/31 01:11:14;;;;;;;29.80;18.48;;;15.30;99.90;;;15.35;79.22;97943.03;4947740;29;20051;-40
2021/08/31 01:13:43;;;;;;;29.42;17.35;;;15.30;99.90;;;15.32;78.95;97939.88;4947075;29;20062;-40
2021/08/31 01:16:10;;;;;;;29.05;19.02;;;15.20;99.90;;;15.31;79.18;97938.19;4944783;29;20058;-40
2021/08/31 01:18:38;;;;;;;27.58;17.40;;;15.20;99.90;;;15.27;79.13;97936.91;4947459;29;20051;-40
2021/08/31 01:21:06;;;;;;;27.00;16.63;;;15.20;99.90;;;15.30;79.11;97931.19;4947828;28;20065;-40
2021/08/31 01:23:35;;;;;;;29.15;17.70;;;15.20;99.90;;;15.26;79.07;97937.94;4946318;28;20066;-40
2021/08/31 01:26:04;;;;;;;25.75;18.35;;;15.10;99.90;;;15.30;78.98;97942.72;4947257;28;20063;-40
2021/08/31 01:28:35;;;;;;;27.42;18.65;;;15.20;99.90;;;15.28;78.98;97936.72;4947502;29;20375;-40
2021/08/31 01:31:04;;;;;;;29.38;18.13;;;15.20;99.90;;;15.25;79.02;97934.38;4947792;29;20051;-40
2021/08/31 01:33:34;;;;;;;29.65;19.65;;;15.20;99.90;;;15.27;78.97;97935.03;4946279;29;20043;-40
2021/08/31 01:36:23;;;;;;;24.67;17.15;;;15.10;99.90;;;15.28;78.93;97930.53;4947085;29;20371;-40
2021/08/31 01:38:55;;;;;;;25.83;18.20;;;15.20;99.90;;;15.30;78.94;97936.53;4945784;28;20058;-40
2021/08/31 01:41:25;;;;;;;26.50;17.02;;;15.20;99.90;;;15.29;78.95;97940.22;4946826;29;20304;-40
2021/08/31 01:43:53;;;;;;;29.13;17.85;;;15.20;99.90;;;15.28;78.73;97941.25;4946452;29;20070;-40
2021/08/31 01:46:21;;;;;;;25.30;16.65;;;15.20;99.90;;;15.22;78.82;97944.66;4947739;28;20066;-40
2021/08/31 01:48:49;;;;;;;25.85;18.40;;;15.10;99.90;;;15.21;78.82;97940.31;4946494;29;20283;-40
2021/08/31 01:51:18;;;;;;;26.42;16.17;;;15.10;99.90;;;15.21;78.84;97940.31;4945702;29;20062;-40
2021/08/31 01:53:46;;;;;;;26.17;17.55;;;15.00;99.90;;;15.22;78.80;97941.97;4947655;28;20062;-40
2021/08/31 01:56:14;;;;;;;28.33;17.73;;;15.10;99.90;;;15.18;78.69;97940.66;4947827;28;20381;-40
2021/08/31 01:58:42;;;;;;;25.05;17.15;;;15.00;99.90;;;15.13;78.92;97942.06;4946504;29;20058;-40
2021/08/31 02:01:10;;;;;;;27.70;16.88;;;15.00;99.90;;;15.17;78.83;97945.22;4947683;28;20669;-40
2021/08/31 02:03:38;;;;;;;30.92;17.95;;;15.00;99.90;;;15.16;78.72;97936.34;4945227;28;20069;-40
2021/08/31 02:06:06;;;;;;;27.27;17.63;;;15.00;99.90;;;15.13;78.79;97943.91;4947939;28;20069;-40
2021/08/31 02:08:33;;;;;;;31.25;18.63;;;15.00;99.90;;;15.11;79.02;97944.09;4951182;29;20417;-40
2021/08/31 02:11:01;;;;;;;27.52;18.08;;;14.90;99.90;;;15.08;78.86;97952.53;4949727;29;20058;-40
2021/08/31 02:13:29;;;;;;;26.38;18.20;;;14.90;99.90;;;15.10;78.97;97944.25;4950917;29;20047;-40
2021/08/31 02:15:57;;;;;;;24.63;15.73;;;15.00;99.90;;;15.11;78.90;97954.00;4950324;28;20058;-40
2021/08/31 02:18:25;;;;;;;26.90;17.38;;;15.00;99.90;;;15.14;78.83;97954.47;4949214;29;20058;-40
2021/08/31 02:20:53;;;;;;;27.52;17.98;;;15.00;99.90;;;15.18;78.72;97962.13;4949996;28;20073;-40
2021/08/31 02:23:21;;;;;;;29.52;17.52;;;15.00;99.90;;;15.12;79.03;97966.38;4950011;29;20058;-40
2021/08/31 02:25:49;;;;;;;32.90;19.73;;;15.00;99.90;;;15.13;78.88;97965.38;4949745;29;20270;-40
2021/08/31 02:28:17;;;;;;;26.83;18.30;;;15.00;99.90;;;15.10;79.11;97966.56;4949536;29;20063;-40
2021/08/31 02:30:45;;;;;;;27.48;17.98;;;15.00;99.90;;;15.12;79.19;97964.53;4950322;29;20051;-40
2021/08/31 02:33:13;;;;;;;31.10;18.80;;;15.00;99.90;;;15.08;79.40;97957.03;4952111;28;20054;-40
2021/08/31 02:35:41;;;;;;;27.63;18.52;;;15.00;99.90;;;15.09;79.24;97962.22;4950860;29;20058;-40
2021/08/31 02:38:09;;;;;;;29.10;19.10;;;15.00;99.90;;;15.14;79.24;97962.50;4951119;29;20059;-40
2021/08/31 02:40:37;;;;;;;30.67;17.25;;;15.00;99.90;;;15.16;79.11;97960.47;4949517;29;20041;-40
2021/08/31 02:43:05;;;;;;;27.88;18.77;;;15.10;99.90;;;15.15;79.17;97961.47;4951169;28;20057;-40
2021/08/31 02:45:33;;;;;;;33.03;20.15;;;15.00;99.90;;;15.13;79.29;97960.81;4951299;29;20051;-40
2021/08/31 02:48:01;;;;;;;30.33;19.70;;;15.00;99.90;;;15.12;79.33;97961.00;4949968;29;20054;-40
2021/08/31 02:50:28;;;;;;;31.55;19.83;;;15.00;99.90;;;15.14;79.34;97948.25;4949143;28;20069;-40
2021/08/31 02:52:56;;;;;;;29.05;18.30;;;15.10;99.90;;;15.12;79.35;97950.28;4948780;29;20353;-40
2021/08/31 02:55:24;;;;;;;28.60;17.83;;;15.00;99.90;;;15.14;79.22;97953.59;4950793;28;20055;-40
2021/08/31 02:57:52;;;;;;;30.85;19.52;;;15.10;99.90;;;15.18;79.13;97954.94;4949415;28;20073;-40
2021/08/31 03:00:20;;;;;;;32.33;20.52;;;15.10;99.90;;;15.11;79.43;97968.22;4949361;28;20131;-40
2021/08/31 03:02:48;;;;;;;29.95;18.67;;;15.00;99.90;;;15.13;79.23;97968.88;4950632;28;20055;-40
2021/08/31 03:05:16;;;;;;;32.38;20.17;;;15.00;99.90;;;15.15;79.38;97966.84;4950713;29;20376;-40
2021/08/31 03:07:44;;;;;;;30.73;19.85;;;15.10;99.90;;;15.21;79.22;97962.59;4950526;29;20085;-40
2021/08/31 03:10:12;;;;;;;30.95;19.67;;;15.10;99.90;;;15.23;79.32;97975.81;4949329;29;20108;-40
2021/08/31 03:12:39;;;;;;;32.38;19.48;;;15.20;99.90;;;15.18;79.38;97975.53;4949850;29;20062;-40
2021/08/31 03:15:08;;;;;;;32.67;18.42;;;15.10;99.90;;;15.19;79.46;97970.00;4950199;29;20051;-40
2021/08/31 03:17:36;;;;;;;34.33;19.30;;;15.10;99.90;;;15.23;79.30;97965.09;4948756;28;20062;-40
2021/08/31 03:20:05;;;;;;;29.52;19.63;;;15.10;99.90;;;15.26;79.34;97970.94;4950491;29;20059;-40
2021/08/31 03:22:32;;;;;;;35.17;21.40;;;15.20;99.90;;;15.16;79.41;97965.00;4948545;29;20065;-40
2021/08/31 03:25:00;;;;;;;29.95;19.42;;;15.10;99.90;;;15.20;79.56;97969.00;4949712;29;20273;-40
2021/08/31 03:27:28;;;;;;;30.02;19.13;;;15.10;99.90;;;15.18;79.29;97975.53;4949441;29;20127;-40
2021/08/31 03:29:56;;;;;;;32.10;19.55;;;15.00;99.90;;;15.14;79.28;97981.28;4949340;28;20077;-40
2021/08/31 03:32:24;;;;;;;31.23;19.50;;;15.00;99.90;;;15.15;79.47;97982.09;4949275;28;20058;-40
2021/08/31 03:34:51;;;;;;;35.58;19.30;;;15.00;99.90;;;15.09;79.56;97983.66;4949475;28;20062;-40
2021/08/31 03:37:19;;;;;;;30.75;18.70;;;15.00;99.90;;;15.11;79.61;97987.00;4949053;29;20053;-40
2021/08/31 03:39:47;;;;;;;33.05;20.38;;;15.00;99.90;;;15.13;79.55;97981.44;4948232;28;20182;-39
2021/08/31 03:42:15;;;;;;;34.92;19.98;;;15.00;99.90;;;15.12;79.43;97980.63;4948749;29;20065;-40
2021/08/31 03:44:43;;;;;;;29.73;19.13;;;15.00;99.90;;;15.17;79.33;97985.44;4949072;28;20067;-39
2021/08/31 03:47:10;;;;;;;30.52;18.30;;;15.00;99.90;;;15.21;79.24;97980.53;4949921;28;20059;-40
2021/08/31 03:49:39;;;;;;;31.20;20.55;;;15.20;99.90;;;15.25;79.35;97984.53;4949522;29;20265;-40
2021/08/31 03:52:10;;;;;;;32.78;19.23;;;15.20;99.90;;;15.27;79.37;97983.31;4949110;28;20527;-40
2021/08/31 03:54:38;;;;;;;35.38;21.55;;;15.20;99.90;;;15.23;79.13;97984.69;4949575;29;20047;-40
2021/08/31 03:57:06;;;;;;;31.85;19.67;;;15.10;99.90;;;15.19;79.23;97988.75;4946977;29;20061;-39
2021/08/31 03:59:34;;;;;;;42.47;21.30;;;15.10;99.90;;;15.19;79.26;97987.94;4947468;29;20057;-39
2021/08/31 04:02:02;;;;;;;38.85;21.70;;;15.10;99.90;;;15.13;79.16;97993.00;4947059;29;20053;-39
2021/08/31 04:04:30;;;;;;;36.42;22.10;;;15.00;99.90;;;15.17;79.17;97990.78;4948906;29;20050;-40
2021/08/31 04:06:58;;;;;;;33.75;22.13;;;15.00;99.90;;;15.19;79.30;97998.66;4947994;28;20073;-40
2021/08/31 04:09:26;;;;;;;37.17;20.95;;;15.10;99.90;;;15.16;79.38;98000.69;4948750;29;20253;-40
2021/08/31 04:11:54;;;;;;;36.38;21.20;;;15.00;99.90;;;15.12;79.44;98002.09;4949946;28;20059;-40
2021/08/31 04:14:21;;;;;;;37.33;22.27;;;15.00;99.90;;;15.13;79.64;97998.38;4948328;29;20761;-40
2021/08/31 04:16:49;;;;;;;39.63;22.90;;;15.10;99.90;;;15.14;79.48;98002.72;4945920;28;20055;-40
2021/08/31 04:19:17;;;;;;;38.28;21.13;;;15.00;99.90;;;15.11;79.52;97997.72;4949243;29;20053;-39
2021/08/31 04:21:45;;;;;;;37.65;21.38;;;15.00;99.90;;;15.13;79.48;97997.53;4947325;29;20383;-40
2021/08/31 04:24:13;;;;;;;40.75;22.02;;;15.00;99.90;;;15.14;79.33;98008.09;4949298;29;20051;-39
2021/08/31 04:26:40;;;;;;;37.75;21.95;;;15.00;99.90;;;15.14;79.34;98007.25;4949297;28;20383;-39
2021/08/31 04:29:09;;;;;;;41.00;24.50;;;15.00;99.90;;;15.14;79.37;98013.47;4948651;28;20061;-40
2021/08/31 04:31:37;;;;;;;37.90;22.15;;;15.10;99.90;;;15.14;79.49;98021.50;4949192;29;20050;-40
2021/08/31 04:34:04;;;;;;;34.70;22.25;;;15.00;99.90;;;15.08;79.68;98016.88;4948892;29;20059;-39
2021/08/31 04:36:32;;;;;;;38.97;21.65;;;15.00;99.90;;;15.07;79.55;98017.88;4948788;29;20779;-39
2021/08/31 04:39:00;;;;;;;34.70;23.48;;;15.00;99.90;;;15.10;79.48;98019.34;4946061;29;20057;-40
2021/08/31 04:41:28;;;;;;;35.05;22.30;;;15.00;99.90;;;15.09;79.63;98017.69;4947515;29;20059;-40
2021/08/31 04:43:56;;;;;;;32.17;20.65;;;15.00;99.90;;;15.11;79.51;98015.66;4949096;28;20067;-40
2021/08/31 04:46:24;;;;;;;34.25;20.35;;;15.00;99.90;;;15.13;79.34;98017.13;4948757;28;20074;-39
2021/08/31 04:48:51;;;;;;;31.60;19.75;;;15.00;99.90;;;15.11;79.56;98019.16;4947896;29;20434;-40
2021/08/31 04:51:19;;;;;;;28.45;18.95;;;15.00;99.90;;;14.99;79.54;98014.44;4946798;28;20055;-39
2021/08/31 04:53:47;;;;;;;30.63;19.42;;;14.90;99.90;;;14.95;79.68;98017.47;4948354;28;20055;-40
2021/08/31 04:56:15;;;;;;;31.70;20.38;;;14.90;99.90;;;15.01;79.52;98012.41;4948727;29;20269;-39
2021/08/31 04:58:43;;;;;;;29.75;18.95;;;14.90;99.90;;;15.02;79.41;98017.56;4946501;29;20047;-39
2021/08/31 05:01:11;;;;;;;26.67;17.77;;;14.90;99.90;;;15.00;79.60;98016.09;4947317;29;20066;-39
2021/08/31 05:03:39;;;;;;;29.83;17.83;;;14.90;99.90;;;14.95;79.68;98022.81;4947241;29;20058;-39
2021/08/31 05:06:09;;;;;;;30.67;19.45;;;14.90;99.90;;;14.96;79.61;98021.78;4949559;28;20077;-39
2021/08/31 05:08:37;;;;;;;27.63;18.20;;;14.90;99.90;;;14.95;79.64;98022.81;4947767;29;20062;-40
2021/08/31 05:11:05;;;;;;;29.83;19.35;;;14.90;99.90;;;15.02;79.69;98024.78;4947572;29;20259;-39
2021/08/31 05:13:39;;;;;;;28.98;17.80;;;14.90;99.90;;;15.01;79.57;98032.00;4947050;29;20059;-39
2021/08/31 05:16:14;;;;;;;31.95;18.02;;;14.90;99.90;;;15.03;79.39;98029.97;4948257;28;20253;-40
2021/08/31 05:18:42;;;;;;;24.00;16.95;;;15.00;99.90;;;15.02;79.62;98036.34;4946761;29;20057;-40
2021/08/31 05:21:09;;;;;;;29.23;18.52;;;14.90;99.90;;;15.03;79.43;98040.69;4947067;29;20410;-40
2021/08/31 05:23:38;;;;;;;26.13;16.23;;;15.00;99.90;;;15.05;79.38;98033.31;4945152;29;20252;-40
2021/08/31 05:26:06;;;;;;;30.05;15.95;;;14.90;99.90;;;15.06;79.39;98043.03;4946554;29;20577;-40
2021/08/31 05:28:33;;;;;;;27.98;17.40;;;15.00;99.90;;;15.09;79.31;98052.56;4945928;28;20059;-40
2021/08/31 05:31:01;;;;;;;27.17;17.05;;;15.00;99.90;;;15.11;79.35;98055.88;4945930;28;20065;-40
2021/08/31 05:33:29;;;;;;;30.25;18.30;;;15.00;99.90;;;15.12;79.26;98060.22;4946548;29;20349;-40
2021/08/31 05:35:57;;;;;;;26.63;16.33;;;15.00;99.90;;;15.04;79.47;98063.78;4947154;28;20047;-39
2021/08/31 05:38:25;;;;;;;22.88;15.73;;;14.90;99.90;;;14.96;79.42;98058.50;4947692;28;20051;-40
2021/08/31 05:40:53;;;;;;;26.63;16.98;;;14.80;99.90;;;14.99;79.48;98063.53;4945786;28;20047;-39
2021/08/31 05:43:21;;;;;;;21.20;14.38;;;14.90;99.90;;;14.94;79.40;98074.75;4954445;28;20063;-40
2021/08/31 05:45:49;;;;;;;20.52;14.48;;;14.90;99.90;;;14.93;79.50;98073.09;4966347;28;20057;-39
2021/08/31 05:48:16;;;;;;;24.85;15.38;;;14.80;99.90;;;14.95;79.55;98075.63;4965467;28;20066;-39
2021/08/31 05:50:44;;;;;;;22.17;15.25;;;14.80;99.90;;;14.99;79.30;98068.06;4965801;28;20345;-40
2021/08/31 05:53:12;;;;;;;21.92;13.98;;;14.90;99.90;;;15.00;79.20;98075.91;4964834;28;20384;-39
2021/08/31 05:55:41;;;;;;;21.05;14.75;;;14.90;99.90;;;14.99;79.31;98079.59;4966953;28;20059;-39
2021/08/31 05:58:09;;;;;;;19.05;14.07;;;14.90;99.90;;;15.01;79.21;98082.94;4966583;28;20054;-39
2021/08/31 06:00:37;;;;;;;19.80;13.95;;;14.90;99.90;;;14.98;79.10;98079.78;4966591;28;20059;-40
2021/08/31 06:03:05;;;;;;;21.25;14.88;;;14.90;99.90;;;14.93;79.32;98080.31;4965093;28;20242;-39
2021/08/31 06:05:33;;;;;;;18.00;13.30;;;14.90;99.90;;;14.94;79.12;98077.44;4965179;28;20070;-39
2021/08/31 06:08:01;;;;;;;19.48;13.77;;;14.90;99.90;;;14.99;79.25;98086.81;4965932;28;20069;-39
2021/08/31 06:10:29;;;;;;;19.08;13.75;;;14.90;99.90;;;15.03;79.27;98088.97;4965289;28;20055;-39
2021/08/31 06:13:00;;;;;;;26.02;16.35;;;15.00;99.90;;;15.04;79.21;98090.59;4965440;28;20070;-39
2021/08/31 06:15:28;;;;;;;19.48;16.02;;;15.00;99.90;;;15.11;79.26;98093.44;4966169;28;20240;-39
2021/08/31 06:17:56;;;;;;;20.17;14.70;;;15.10;99.90;;;14.96;79.24;98091.50;4966785;28;20352;-39
2021/08/31 06:20:24;;;;;;;19.88;15.88;;;14.90;99.90;;;14.99;78.97;98094.88;4964960;28;20245;-39
2021/08/31 06:22:52;;;;;;;19.90;13.18;;;14.90;99.90;;;15.05;79.17;98097.66;4966518;28;20368;-39
2021/08/31 06:25:20;;;;;;;20.38;12.77;;;15.00;99.90;;;15.09;79.21;98098.13;4965193;28;20273;-39
2021/08/31 06:27:48;;;;;;;24.00;13.43;;;15.00;99.90;;;15.10;79.06;98097.09;4965270;28;20054;-39
2021/08/31 06:30:15;;;;;;;17.45;12.27;;;15.00;99.90;;;15.12;79.03;98098.63;4966558;28;20050;-39
2021/08/31 06:32:48;;;;;;;16.80;11.90;;;15.10;99.90;;;15.11;79.03;98099.63;4966711;28;20058;-39
2021/08/31 06:35:16;;;;;;;16.90;12.63;;;15.00;99.90;;;15.13;79.25;98099.44;4966754;28;20058;-40
2021/08/31 06:37:43;;;;;;;17.83;12.55;;;15.10;99.90;;;15.15;79.08;98102.78;4965942;28;20057;-39
2021/08/31 06:40:12;;;;;;;18.20;13.38;;;15.10;99.90;;;15.09;79.35;98112.38;4965243;28;20046;-40
2021/08/31 06:42:40;;;;;;;15.30;13.13;;;15.10;99.90;;;15.11;79.14;98104.97;4964645;28;20059;-39
2021/08/31 06:45:08;;;;;;;16.83;11.85;;;15.10;99.90;;;15.22;79.23;98116.28;4963935;28;20904;-38
2021/08/31 06:47:36;;;;;;;19.13;12.20;;;15.20;99.90;;;15.23;79.10;98116.13;4964356;28;20055;-38
2021/08/31 06:50:04;;;;;;;15.20;10.05;;;15.20;99.90;;;15.30;79.12;98117.06;4966296;28;20074;-39
2021/08/31 06:52:32;;;;;;;18.42;11.00;;;15.30;99.90;;;15.33;78.98;98118.56;4967646;28;20273;-39
2021/08/31 06:55:01;;;;;;;14.52;10.45;;;15.40;99.90;;;15.37;78.78;98119.88;4970247;28;20057;-39
2021/08/31 06:57:29;;;;;;;13.65;10.23;;;15.40;99.90;;;15.32;78.85;98111.53;4967721;28;20062;-39
2021/08/31 06:59:57;;;;;;;15.65;10.80;;;15.30;99.90;;;15.37;78.81;98111.81;4968277;28;20043;-39
2021/08/31 07:02:25;;;;;;;15.88;11.32;;;15.40;99.90;;;15.40;78.61;98110.63;4967343;28;20043;-39
2021/08/31 07:04:53;;;;;;;13.60;10.77;;;15.50;99.90;;;15.49;78.82;98112.22;4969759;28;20051;-39
2021/08/31 07:07:21;;;;;;;15.50;10.43;;;15.50;99.90;;;15.53;78.44;98109.00;4969525;28;20226;-39
2021/08/31 07:09:49;;;;;;;15.98;10.68;;;15.60;99.90;;;15.54;78.35;98110.66;4967560;28;20068;-39
2021/08/31 07:12:18;;;;;;;13.43;9.57;;;15.60;99.90;;;15.42;78.04;98100.56;4953374;28;20047;-39
2021/08/31 07:14:47;;;;;;;14.48;10.73;;;15.50;99.90;;;15.43;78.09;98100.38;4950851;29;20069;-39
2021/08/31 07:17:15;;;;;;;18.17;11.45;;;15.40;99.90;;;15.49;77.83;98104.16;4946966;29;20059;-39
2021/08/31 07:19:43;;;;;;;14.80;9.85;;;15.50;99.90;;;15.50;78.25;98108.53;4950891;28;20051;-39
2021/08/31 07:22:11;;;;;;;12.60;9.13;;;15.50;99.90;;;15.54;77.95;98109.84;4949591;29;20065;-39
2021/08/31 07:24:39;;;;;;;11.32;9.32;;;15.50;99.90;;;15.60;77.98;98119.00;4950097;28;20062;-39
2021/08/31 07:27:07;;;;;;;13.18;9.15;;;15.60;99.90;;;15.60;77.74;98113.63;4950015;29;20072;-40
2021/08/31 07:29:35;;;;;;;14.65;9.90;;;15.70;99.90;;;15.64;77.89;98118.44;4949240;29;20061;-39
2021/08/31 07:32:03;;;;;;;12.32;9.15;;;15.70;99.90;;;15.70;77.98;98120.44;4948938;29;20063;-39
2021/08/31 07:34:31;;;;;;;12.07;9.32;;;15.80;99.90;;;15.77;77.76;98133.16;4949799;28;20057;-39
2021/08/31 07:36:59;;;;;;;10.82;8.68;;;15.80;99.90;;;15.86;77.86;98135.56;4947732;28;20349;-39
2021/08/31 07:39:27;;;;;;;10.95;8.63;;;16.00;99.90;;;15.92;77.60;98142.06;4948862;29;20055;-39
2021/08/31 07:41:55;;;;;;;13.98;8.95;;;16.00;99.90;;;15.91;77.44;98143.91;4948020;29;20065;-40
2021/08/31 07:44:23;;;;;;;11.45;8.05;;;16.00;99.90;;;15.97;77.37;98149.56;4949913;28;20059;-39
2021/08/31 07:46:51;;;;;;;11.30;8.95;;;16.10;99.90;;;16.01;77.25;98146.31;4967668;28;20076;-39
2021/08/31 07:49:19;;;;;;;10.13;8.55;;;16.20;99.90;;;16.03;77.09;98152.38;4966956;28;20051;-39
2021/08/31 07:51:47;;;;;;;10.70;8.52;;;16.10;99.90;;;16.04;76.85;98154.00;4968580;28;20059;-39
2021/08/31 07:54:15;;;;;;;11.10;8.02;;;16.10;99.90;;;16.08;76.97;98144.56;4969133;28;20051;-39
2021/08/31 07:56:43;;;;;;;10.48;8.13;;;16.10;99.90;;;16.09;76.23;98153.44;4968456;28;20058;-39
2021/08/31 07:59:11;;;;;;;10.98;8.93;;;16.10;99.90;;;16.14;76.76;98157.25;4965578;28;20257;-40
2021/08/31 08:01:40;;;;;;;13.38;9.18;;;16.20;99.90;;;16.04;75.78;98153.19;4966179;28;20477;-40
2021/08/31 08:04:08;;;;;;;9.60;7.60;;;16.20;99.90;;;16.08;75.81;98151.81;4966104;28;20256;-40
2021/08/31 08:06:36;;;;;;;12.10;8.15;;;16.10;99.90;;;16.09;75.62;98150.75;4967406;28;20095;-40
2021/08/31 08:09:04;;;;;;;11.82;8.98;;;16.20;99.90;;;16.10;75.76;98165.88;4966501;28;20463;-40
2021/08/31 08:11:32;;;;;;;11.70;9.85;;;16.20;99.90;;;16.17;75.89;98165.97;4967400;28;20069;-40
2021/08/31 08:14:00;;;;;;;10.27;8.70;;;16.30;99.90;;;16.18;75.81;98170.34;4966496;28;20050;-40
2021/08/31 08:16:28;;;;;;;10.15;8.20;;;16.30;99.90;;;16.21;75.58;98168.13;4965618;28;20063;-40
2021/08/31 08:18:56;;;;;;;12.02;7.82;;;16.30;99.90;;;16.23;75.34;98179.50;4967361;28;20046;-40
2021/08/31 08:21:24;;;;;;;12.57;8.30;;;16.30;99.90;;;16.22;75.39;98180.50;4965777;28;20053;-40
2021/08/31 08:23:52;;;;;;;8.23;7.32;;;16.30;99.90;;;16.21;75.21;98178.84;4967822;28;20066;-40
2021/08/31 08:26:20;;;;;;;11.95;8.40;;;16.20;99.90;;;16.24;75.04;98185.72;4965926;28;20487;-40
2021/08/31 08:28:49;;;;;;;11.63;8.32;;;16.30;99.90;;;16.27;75.12;98183.50;4967264;28;20419;-40
2021/08/31 08:31:17;;;;;;;9.52;7.72;;;16.30;99.90;;;16.30;75.21;98187.66;4966031;28;20062;-40
2021/08/31 08:33:44;;;;;;;10.40;8.13;;;16.40;99.90;;;16.30;75.08;98183.13;4967508;28;20059;-40
2021/08/31 08:36:12;;;;;;;9.95;8.43;;;16.50;99.50;;;16.37;75.06;98182.38;4968027;28;20056;-40
2021/08/31 08:38:40;;;;;;;9.77;8.15;;;16.60;99.90;;;16.41;75.13;98189.06;4966670;28;20061;-40
2021/08/31 08:41:08;;;;;;;10.45;7.32;;;16.60;99.90;;;16.48;75.13;98181.94;4965095;28;20237;-40
2021/08/31 08:43:37;;;;;;;8.02;7.18;;;16.70;99.90;;;16.50;74.50;98185.25;4965210;28;20049;-40
2021/08/31 08:46:07;;;;;;;11.57;7.38;;;16.70;98.70;;;16.51;74.49;98194.97;4966658;28;20065;-39
2021/08/31 08:48:35;;;;;;;11.23;7.80;;;16.70;99.00;;;16.55;74.42;98193.59;4966770;28;20057;-39
2021/08/31 08:51:06;;;;;;;8.32;7.45;;;16.70;98.40;;;16.60;74.14;98187.66;4965899;28;20057;-40
2021/08/31 08:53:35;;;;;;;8.50;7.03;;;16.80;98.60;;;16.64;74.38;98199.72;4965174;28;20057;-40
2021/08/31 08:56:04;;;;;;;10.20;7.00;;;16.80;98.30;;;16.71;74.34;98192.53;4976773;28;20041;-40
2021/08/31 08:58:33;;;;;;;9.57;7.47;;;17.00;98.80;;;16.76;74.04;98200.06;4981039;28;20039;-39
2021/08/31 09:01:12;;;;;;;8.85;6.25;;;17.00;97.80;;;16.74;74.02;98205.63;4980114;28;20395;-39
2021/08/31 09:03:54;;;;;;;9.32;7.70;;;16.90;97.10;;;16.77;74.23;98202.56;4979599;28;20057;-39
2021/08/31 09:06:23;;;;;;;10.30;7.95;;;16.90;97.60;;;16.78;73.81;98211.47;4979027;28;20050;-40
2021/08/31 09:09:07;;;;;;;8.40;7.38;;;17.00;98.40;;;16.81;74.32;98209.25;4984781;28;20047;-40
2021/08/31 09:11:41;;;;;;;9.30;7.10;;;17.00;98.40;;;16.80;73.72;98206.75;4987132;28;20054;-40
2021/08/31 09:14:26;;;;;;;12.82;7.60;;;17.00;97.50;;;16.84;74.13;98202.69;4988801;28;20244;-39
2021/08/31 09:17:12;;;;;;;9.65;7.85;;;17.10;97.90;;;16.86;73.82;98208.69;4989214;28;20042;-39
2021/08/31 09:19:43;;;;;;;10.13;7.72;;;17.10;96.70;;;16.84;72.46;98216.13;4990857;28;20268;-39
2021/08/31 09:22:22;;;;;;;8.23;7.40;;;17.10;96.00;;;16.74;72.38;98222.59;4984346;28;20081;-40
2021/08/31 09:25:07;;;;;;;9.32;8.23;;;16.90;94.00;;;16.76;72.95;98221.59;4981092;28;20054;-39
2021/08/31 09:27:50;;;;;;;8.90;7.90;;;17.00;96.20;;;16.76;72.53;98224.28;4983945;28;20068;-39
2021/08/31 09:30:22;;;;;;;8.77;7.05;;;16.90;94.90;;;16.71;72.54;98224.81;4978866;28;20388;-39
2021/08/31 09:33:12;;;;;;;13.13;9.13;;;16.90;95.30;;;16.70;72.70;98231.22;4986815;28;20054;-39
2021/08/31 09:35:44;;;;;;;10.10;8.65;;;16.90;94.30;;;16.67;72.17;98229.75;4986632;28;20591;-40
2021/08/31 09:38:18;;;;;;;10.75;9.20;;;16.80;95.30;;;16.70;71.82;98226.66;4986991;28;20050;-40
2021/08/31 09:40:52;;;;;;;10.93;9.13;;;16.90;95.30;;;16.74;71.15;98227.97;4985625;28;20046;-40
2021/08/31 09:43:25;;;;;;;10.43;8.93;;;17.00;95.10;;;16.83;71.92;98226.06;4985976;28;20506;-39
2021/08/31 09:45:55;;;;;;;10.68;8.73;;;17.10;95.50;;;16.91;72.15;98222.44;4984354;28;20248;-38
2021/08/31 09:48:23;;;;;;;9.38;8.05;;;17.20;95.70;;;16.92;71.51;98227.63;4985753;28;20341;-39
2021/08/31 09:50:55;;;;;;;10.65;8.40;;;17.20;94.00;;;16.93;71.59;98223.06;4985428;28;20259;-38
2021/08/31 09:53:29;;;;;;;11.38;8.90;;;17.20;93.00;;;16.93;71.44;98231.97;4985831;28;20050;-38
2021/08/31 09:56:02;;;;;;;10.75;8.57;;;17.10;93.80;;;16.95;70.67;98226.41;4987333;28;20054;-38
2021/08/31 09:58:38;;;;;;;12.98;7.88;;;17.20;92.80;;;17.00;71.44;98225.84;4985755;28;20054;-38
2021/08/31 10:01:07;;;;;;;10.07;6.95;;;17.30;93.90;;;17.08;71.30;98229.25;4984747;28;20051;-38
2021/08/31 10:03:38;;;;;;;11.23;7.75;;;17.40;94.40;;;17.16;70.96;98232.84;4986689;28;20519;-39
2021/08/31 10:06:07;;;;;;;10.13;8.20;;;17.50;91.80;;;17.20;70.68;98228.78;4985100;28;20264;-38
2021/08/31 10:08:39;;;;;;;13.02;9.10;;;17.50;93.00;;;17.23;70.06;98228.38;4984820;28;20050;-38
2021/08/31 10:11:08;;;;;;;10.05;8.38;;;17.50;91.90;;;17.29;70.08;98225.78;4985751;28;20064;-39
2021/08/31 10:13:40;;;;;;;9.48;7.80;;;17.60;92.10;;;17.35;70.08;98229.56;4983749;28;20060;-39
2021/08/31 10:16:09;;;;;;;10.38;8.20;;;17.60;92.00;;;17.41;70.14;98222.56;4985437;28;20060;-39